Time;durP1;ratioP1;P1;durP2;ratioP2;P2;SDS_P1;SDS_P2;PMS_P1;PMS_P2;Temp;Humidity;BMP_temperature;BMP_pressure;BME280_temperature;BME280_humidity;BME280_pressure;Samples;Min_cycle;Max_cycle;Signal;HPM_P1;HPM_P2
2023/07/26 00:00:22;;;;;;;12.32;3.33;;;;;;;-144.73;100.00;54456.97;4946918;28;20115;-72
2023/07/26 00:02:48;;;;;;;14.60;3.17;;;;;;;-144.73;100.00;54508.28;4969847;28;20036;-72
2023/07/26 00:05:13;;;;;;;15.02;2.83;;;;;;;-144.73;100.00;54463.13;4917940;28;20032;-72
2023/07/26 00:07:38;;;;;;;25.42;3.53;;;;;;;-144.73;100.00;54473.38;4910595;28;20040;-72
2023/07/26 00:10:04;;;;;;;6.85;2.40;;;;;;;-144.73;100.00;54485.69;4927770;28;20032;-71
2023/07/26 00:12:29;;;;;;;13.40;2.63;;;;;;;-144.73;100.00;54487.75;4933843;28;20091;-72
2023/07/26 00:14:55;;;;;;;8.23;2.45;;;;;;;-144.73;100.00;54477.47;4953008;28;20026;-72
2023/07/26 00:17:20;;;;;;;22.83;3.15;;;;;;;-144.73;100.00;54493.91;4936145;28;20485;-72
2023/07/26 00:19:46;;;;;;;10.77;2.88;;;;;;;-144.73;100.00;54493.91;4946836;28;20569;-72
2023/07/26 00:22:12;;;;;;;9.50;2.72;;;;;;;-144.73;100.00;54461.06;4940831;28;20060;-72
2023/07/26 00:24:38;;;;;;;10.45;2.60;;;;;;;-144.73;100.00;54448.75;4968696;28;20059;-72
2023/07/26 00:27:03;;;;;;;11.00;2.92;;;;;;;-144.73;100.00;54506.22;4997298;28;20058;-71
2023/07/26 00:29:28;;;;;;;7.88;2.55;;;;;;;-144.73;100.00;54461.06;4910029;28;20044;-72
2023/07/26 00:31:54;;;;;;;14.63;2.78;;;;;;;-144.73;100.00;54518.53;4911114;28;20020;-72
2023/07/26 00:34:19;;;;;;;16.08;2.90;;;;;;;-144.73;100.00;54452.84;4914155;28;20051;-72
2023/07/26 00:36:44;;;;;;;8.90;3.13;;;;;;;-144.73;100.00;54469.28;4911934;28;20081;-72
2023/07/26 00:39:10;;;;;;;9.02;2.78;;;;;;;-144.73;100.00;54526.75;4934020;28;20036;-72
2023/07/26 00:41:35;;;;;;;9.88;2.80;;;;;;;-144.73;100.00;54469.28;4965521;28;20027;-72
2023/07/26 00:44:01;;;;;;;9.18;2.85;;;;;;;-144.73;100.00;54495.97;4939769;28;20047;-71
2023/07/26 00:46:27;;;;;;;18.02;2.60;;;;;;;-144.73;100.00;54467.22;4963645;28;20071;-72
2023/07/26 00:48:53;;;;;;;16.77;3.35;;;;;;;-144.73;100.00;54493.91;4942741;28;20039;-72
2023/07/26 00:51:21;;;;;;;9.07;3.05;;;;;;;-144.73;100.00;54438.50;4947311;28;20400;-72
2023/07/26 00:53:46;;;;;;;15.00;2.97;;;;;;;-144.73;100.00;54502.13;4981280;28;20184;-72
2023/07/26 00:56:12;;;;;;;16.60;3.58;;;;;;;-144.73;100.00;54454.91;4948392;28;20107;-72
2023/07/26 00:58:39;;;;;;;10.52;2.47;;;;;;;-144.73;100.00;54498.00;4913422;28;20047;-72
2023/07/26 01:01:05;;;;;;;15.93;3.08;;;;;;;-144.73;100.00;54475.44;4946980;28;20168;-72
2023/07/26 01:03:30;;;;;;;9.77;3.03;;;;;;;-144.73;100.00;54498.00;4945187;28;20123;-72
2023/07/26 01:06:21;;;;;;;14.70;2.60;;;;;;;-144.73;100.00;54504.16;4961517;28;20029;-73
2023/07/26 01:09:05;;;;;;;6.43;2.80;;;;;;;-144.73;100.00;54489.81;4912016;28;20134;-72
2023/07/26 01:12:02;;;;;;;8.75;2.42;;;;;;;-144.73;100.00;54456.97;4941087;28;20036;-72
2023/07/26 01:14:36;;;;;;;8.35;2.22;;;;;;;-144.73;100.00;54436.44;5012346;28;20442;-72
2023/07/26 01:17:04;;;;;;;7.80;2.15;;;;;;;-144.73;100.00;54477.47;5016649;28;20167;-72
2023/07/26 01:19:29;;;;;;;8.93;2.72;;;;;;;-144.73;100.00;54473.38;4936562;28;20038;-72
2023/07/26 01:21:55;;;;;;;11.57;3.20;;;;;;;-144.73;100.00;54465.16;4949945;28;20054;-73
2023/07/26 01:24:21;;;;;;;13.35;3.17;;;;;;;-144.73;100.00;54469.28;4922671;28;20044;-73
2023/07/26 01:26:46;;;;;;;10.52;2.53;;;;;;;-144.73;100.00;54473.38;4932702;28;20040;-73
2023/07/26 01:29:12;;;;;;;10.40;2.85;;;;;;;-144.73;100.00;54506.22;4931215;28;20033;-73
2023/07/26 01:31:38;;;;;;;8.25;2.97;;;;;;;-144.73;100.00;54487.75;4950648;28;20479;-73
2023/07/26 01:34:05;;;;;;;12.32;2.83;;;;;;;-144.73;100.00;54461.06;4940769;28;20036;-73
2023/07/26 01:36:32;;;;;;;11.20;2.30;;;;;;;-144.73;100.00;54479.53;4941109;28;20029;-73
2023/07/26 01:38:58;;;;;;;13.25;3.00;;;;;;;-144.73;100.00;54491.84;4953528;28;20039;-73
2023/07/26 01:41:25;;;;;;;14.23;3.72;;;;;;;-144.73;100.00;54448.75;4932543;28;20025;-73
2023/07/26 01:43:51;;;;;;;13.63;2.78;;;;;;;-144.73;100.00;54489.81;4972101;28;20033;-73
2023/07/26 01:46:16;;;;;;;13.00;3.22;;;;;;;-144.73;100.00;54461.06;4954035;28;20033;-72
2023/07/26 01:48:41;;;;;;;14.65;2.60;;;;;;;-144.73;100.00;54473.38;4935800;28;20034;-73
2023/07/26 01:51:07;;;;;;;11.10;2.80;;;;;;;-144.73;100.00;54518.53;4949759;28;20030;-73
2023/07/26 01:53:34;;;;;;;7.07;2.58;;;;;;;-144.73;100.00;54522.63;4915414;28;20028;-73
2023/07/26 01:56:02;;;;;;;18.38;3.03;;;;;;;-144.73;100.00;54440.53;4971906;28;20013;-73
2023/07/26 01:58:28;;;;;;;18.17;2.72;;;;;;;-144.73;100.00;54502.13;4917183;28;20036;-73
2023/07/26 02:00:54;;;;;;;12.45;3.03;;;;;;;-144.73;100.00;54495.97;4936717;28;20397;-71
2023/07/26 02:03:20;;;;;;;6.47;2.95;;;;;;;-144.73;100.00;54502.13;4951783;28;20036;-72
2023/07/26 02:05:46;;;;;;;10.93;2.85;;;;;;;-144.73;100.00;54520.59;4956102;28;20028;-72
2023/07/26 02:08:12;;;;;;;12.95;2.60;;;;;;;-144.73;100.00;54502.13;4936819;28;20516;-72
2023/07/26 02:10:40;;;;;;;14.75;3.45;;;;;;;-144.73;100.00;54444.66;4991308;28;20026;-72
2023/07/26 02:13:06;;;;;;;12.52;3.17;;;;;;;-144.73;100.00;54469.28;4938832;28;20034;-72
2023/07/26 02:15:31;;;;;;;9.52;2.92;;;;;;;-144.73;100.00;54493.91;4976447;28;20029;-72
2023/07/26 02:17:57;;;;;;;16.58;2.78;;;;;;;-144.73;100.00;54481.59;4962231;28;20028;-72
2023/07/26 02:20:23;;;;;;;9.50;2.85;;;;;;;-144.73;100.00;54502.13;4912739;28;20028;-72
2023/07/26 02:22:48;;;;;;;11.50;2.80;;;;;;;-144.73;100.00;54514.44;4949600;28;20067;-72
2023/07/26 02:25:14;;;;;;;17.20;3.00;;;;;;;-144.73;100.00;54487.75;5008857;28;20037;-73
2023/07/26 02:27:39;;;;;;;14.02;3.15;;;;;;;-144.73;100.00;54485.69;4956443;28;20499;-72
2023/07/26 02:30:05;;;;;;;10.95;2.35;;;;;;;-144.73;100.00;54514.44;4987748;28;20052;-72
2023/07/26 02:32:30;;;;;;;11.10;3.20;;;;;;;-144.73;100.00;54459.00;4937227;28;20034;-72
2023/07/26 02:34:56;;;;;;;10.95;2.70;;;;;;;-144.73;100.00;54477.47;4924314;28;20012;-72
2023/07/26 02:37:21;;;;;;;13.98;3.40;;;;;;;-144.73;100.00;54502.13;4947631;28;20035;-72
2023/07/26 02:39:48;;;;;;;10.68;3.08;;;;;;;-144.73;100.00;54510.31;4912174;28;20028;-72
2023/07/26 02:42:13;;;;;;;11.05;3.78;;;;;;;-144.73;100.00;54502.13;4911907;28;20032;-72
2023/07/26 02:44:38;;;;;;;10.85;2.83;;;;;;;-144.73;100.00;54506.22;4924152;28;20039;-72
2023/07/26 02:47:04;;;;;;;10.82;2.97;;;;;;;-144.73;100.00;54489.81;4914879;28;20032;-72
2023/07/26 02:49:29;;;;;;;11.40;2.88;;;;;;;-144.73;100.00;54510.31;4908638;28;20037;-71
2023/07/26 02:51:54;;;;;;;7.95;2.97;;;;;;;-144.73;100.00;54489.81;4912687;29;20053;-71
2023/07/26 02:54:20;;;;;;;15.95;2.80;;;;;;;-144.73;100.00;54516.47;4907324;28;20040;-71
2023/07/26 02:56:45;;;;;;;17.38;3.00;;;;;;;-144.73;100.00;54481.59;4916925;28;20095;-72
2023/07/26 02:59:11;;;;;;;6.55;3.00;;;;;;;-144.73;100.00;54477.47;4952374;28;20123;-72
2023/07/26 03:01:36;;;;;;;12.15;3.03;;;;;;;-144.73;100.00;54508.28;4978012;28;20026;-72
2023/07/26 03:04:02;;;;;;;7.95;2.72;;;;;;;-144.73;100.00;54495.97;4960969;28;20088;-71
2023/07/26 03:06:28;;;;;;;11.00;3.03;;;;;;;-144.73;100.00;54495.97;4988005;28;20029;-72
2023/07/26 03:08:53;;;;;;;11.25;3.00;;;;;;;-144.73;100.00;54500.06;4972098;28;20038;-72
2023/07/26 03:11:18;;;;;;;9.95;3.25;;;;;;;-144.73;100.00;54489.81;4953968;28;20035;-72
2023/07/26 03:13:44;;;;;;;7.88;2.88;;;;;;;-144.73;100.00;54477.47;4955175;28;20040;-72
2023/07/26 03:16:09;;;;;;;8.57;2.72;;;;;;;-144.73;100.00;54469.28;4934746;28;20025;-72
2023/07/26 03:18:35;;;;;;;11.35;3.38;;;;;;;-144.73;100.00;54506.22;4956576;28;20072;-72
2023/07/26 03:21:00;;;;;;;18.38;3.45;;;;;;;-144.73;100.00;54469.28;4927692;28;20027;-71
2023/07/26 03:23:25;;;;;;;9.68;3.83;;;;;;;-144.73;100.00;54469.28;4927987;28;20044;-72
2023/07/26 03:25:51;;;;;;;15.73;3.47;;;;;;;-144.73;100.00;54481.59;4943064;28;20018;-72
2023/07/26 03:28:16;;;;;;;14.77;2.90;;;;;;;-144.73;100.00;54524.69;4916397;28;20036;-72
2023/07/26 03:30:42;;;;;;;6.32;2.60;;;;;;;-144.73;100.00;54481.59;4931764;28;20034;-72
2023/07/26 03:33:08;;;;;;;11.95;2.80;;;;;;;-144.73;100.00;54452.84;4965226;28;20040;-72
2023/07/26 03:35:33;;;;;;;12.57;3.35;;;;;;;-144.73;100.00;54481.59;4962385;28;20474;-72
2023/07/26 03:37:59;;;;;;;15.82;3.72;;;;;;;-144.73;100.00;54506.22;4964681;28;20032;-72
2023/07/26 03:40:24;;;;;;;7.38;3.15;;;;;;;-144.73;100.00;54481.59;4979437;28;20058;-73
2023/07/26 03:42:49;;;;;;;8.85;3.22;;;;;;;-144.73;100.00;54489.81;5025368;28;20100;-73
2023/07/26 03:45:15;;;;;;;14.57;3.65;;;;;;;-144.73;100.00;54495.97;4936191;28;20024;-73
2023/07/26 03:47:40;;;;;;;15.40;3.78;;;;;;;-144.73;100.00;54485.69;4942346;28;20493;-73
2023/07/26 03:50:06;;;;;;;8.90;3.30;;;;;;;-144.73;100.00;54473.38;5021441;28;20804;-73
2023/07/26 03:52:31;;;;;;;14.80;3.30;;;;;;;-144.73;100.00;54498.00;4970179;28;20068;-73
2023/07/26 03:54:57;;;;;;;9.48;3.17;;;;;;;-144.73;100.00;54502.13;4944179;28;20014;-73
2023/07/26 03:57:22;;;;;;;9.18;3.55;;;;;;;-144.73;100.00;54495.97;4963576;28;20028;-72
2023/07/26 03:59:48;;;;;;;13.70;4.07;;;;;;;-144.73;100.00;54448.75;4911626;29;20424;-74
2023/07/26 04:02:13;;;;;;;15.45;3.55;;;;;;;-144.73;100.00;54510.31;4911711;29;20494;-73
2023/07/26 04:04:38;;;;;;;9.45;3.28;;;;;;;-144.73;100.00;54522.63;4909994;28;20083;-73
2023/07/26 04:07:04;;;;;;;10.80;3.78;;;;;;;-144.73;100.00;54481.59;4911196;28;20036;-73
2023/07/26 04:09:30;;;;;;;10.38;3.35;;;;;;;-144.73;100.00;54477.47;4906736;28;20128;-72
2023/07/26 04:11:56;;;;;;;16.08;3.78;;;;;;;-144.73;100.00;54514.44;4911447;28;20056;-72
2023/07/26 04:14:22;;;;;;;10.60;3.45;;;;;;;-144.73;100.00;54518.53;4908243;28;20102;-72
2023/07/26 04:16:47;;;;;;;13.77;3.42;;;;;;;-144.73;100.00;54477.47;4912635;28;20024;-73
2023/07/26 04:19:13;;;;;;;9.60;3.47;;;;;;;-144.73;100.00;54530.84;4974966;28;20081;-72
2023/07/26 04:21:38;;;;;;;15.68;3.50;;;;;;;-144.73;100.00;54473.38;4917988;28;20372;-72
2023/07/26 04:24:04;;;;;;;9.27;3.47;;;;;;;-144.73;100.00;54506.22;4918659;28;20026;-72
2023/07/26 04:26:29;;;;;;;8.10;3.92;;;;;;;-144.73;100.00;54483.66;4941006;28;20040;-72
2023/07/26 04:28:55;;;;;;;18.63;4.25;;;;;;;-144.73;100.00;54491.84;4977682;28;20026;-72
2023/07/26 04:31:20;;;;;;;10.25;3.58;;;;;;;-144.73;100.00;54489.81;5010125;28;20032;-72
2023/07/26 04:33:47;;;;;;;13.57;3.83;;;;;;;-144.73;100.00;54506.22;4974526;28;20040;-72
2023/07/26 04:36:12;;;;;;;9.23;3.53;;;;;;;-144.73;100.00;54485.69;4940863;28;20036;-73
2023/07/26 04:38:37;;;;;;;10.88;3.53;;;;;;;-144.73;100.00;54477.47;4919851;28;20036;-72
2023/07/26 04:41:04;;;;;;;11.00;3.40;;;;;;;-144.73;100.00;54504.16;4921472;28;20041;-73
2023/07/26 04:43:29;;;;;;;13.90;4.30;;;;;;;-144.73;100.00;54481.59;4909496;28;20148;-74
2023/07/26 04:45:55;;;;;;;12.75;3.67;;;;;;;-144.73;100.00;54481.59;4939524;28;20091;-73
2023/07/26 04:48:20;;;;;;;9.02;3.10;;;;;;;-144.73;100.00;54469.28;4911622;28;20067;-74
2023/07/26 04:50:47;;;;;;;9.30;3.55;;;;;;;-144.73;100.00;54508.28;4911487;28;20102;-74
2023/07/26 04:53:13;;;;;;;11.15;3.45;;;;;;;-144.73;100.00;54481.59;5006763;28;20094;-73
2023/07/26 04:55:49;;;;;;;15.57;4.00;;;;;;;-144.73;100.00;54500.06;4910134;29;20027;-73
2023/07/26 04:58:14;;;;;;;11.23;3.13;;;;;;;-144.73;100.00;54491.84;4947232;28;20040;-73
2023/07/26 05:00:41;;;;;;;7.50;3.13;;;;;;;-144.73;100.00;54489.81;4943978;28;20110;-73
2023/07/26 05:03:07;;;;;;;8.32;3.53;;;;;;;-144.73;100.00;54477.47;4915591;28;20043;-73
2023/07/26 05:05:34;;;;;;;7.93;2.90;;;;;;;-144.73;100.00;54473.38;4951647;28;20094;-73
2023/07/26 05:08:00;;;;;;;11.32;2.53;;;;;;;-144.73;100.00;54473.38;4922259;28;20038;-73
2023/07/26 05:10:25;;;;;;;13.25;3.53;;;;;;;-144.73;100.00;54506.22;4968497;28;20096;-73
2023/07/26 05:12:51;;;;;;;8.63;3.38;;;;;;;-144.73;100.00;54514.44;4950922;28;20052;-73
2023/07/26 05:15:17;;;;;;;11.48;3.42;;;;;;;-144.73;100.00;54489.81;4937676;28;20107;-74
2023/07/26 05:17:45;;;;;;;17.17;4.47;;;;;;;-144.73;100.00;54498.00;4991367;28;20034;-73
2023/07/26 05:20:12;;;;;;;20.20;3.78;;;;;;;-144.73;100.00;54493.91;4951837;28;20039;-73
2023/07/26 05:22:37;;;;;;;22.02;3.78;;;;;;;-144.73;100.00;54469.28;4925389;28;20135;-74
2023/07/26 05:25:03;;;;;;;11.55;3.88;;;;;;;-144.73;100.00;54465.16;4939633;28;20103;-74
2023/07/26 05:27:28;;;;;;;12.38;3.05;;;;;;;-144.73;100.00;54477.47;4968679;28;20118;-74
2023/07/26 05:29:54;;;;;;;14.57;3.33;;;;;;;-144.73;100.00;54510.31;4956247;28;20032;-73
2023/07/26 05:32:20;;;;;;;14.57;4.10;;;;;;;-144.73;100.00;54530.84;4946429;28;20026;-74
2023/07/26 05:34:45;;;;;;;9.52;3.20;;;;;;;-144.73;100.00;54539.06;4976748;28;20040;-73
2023/07/26 05:37:11;;;;;;;20.98;3.78;;;;;;;-144.73;100.00;54487.75;4957494;28;20031;-72
2023/07/26 05:39:36;;;;;;;14.57;3.55;;;;;;;-144.73;100.00;54522.63;4982054;28;20026;-72
2023/07/26 05:42:01;;;;;;;11.75;3.60;;;;;;;-144.73;100.00;54514.44;4932666;28;20029;-73
2023/07/26 05:44:27;;;;;;;12.90;3.33;;;;;;;-144.73;100.00;54450.81;4930790;28;20040;-72
2023/07/26 05:46:52;;;;;;;17.73;3.80;;;;;;;-144.73;100.00;54469.28;4958978;28;20020;-72
2023/07/26 05:49:18;;;;;;;20.33;3.60;;;;;;;-144.73;100.00;54465.16;4926018;28;20040;-72
2023/07/26 05:51:43;;;;;;;14.40;3.67;;;;;;;-144.73;100.00;54539.06;4947139;28;20024;-73
2023/07/26 05:54:09;;;;;;;20.23;3.60;;;;;;;-144.73;100.00;54489.81;4919757;28;20051;-72
2023/07/26 05:56:34;;;;;;;18.90;3.70;;;;;;;-144.73;100.00;54520.59;4989480;28;20025;-72
2023/07/26 05:58:59;;;;;;;9.15;3.25;;;;;;;-144.73;100.00;54526.75;4984866;28;20409;-72
2023/07/26 06:01:25;;;;;;;12.02;3.65;;;;;;;-144.73;100.00;54493.91;4980417;28;20060;-72
2023/07/26 06:03:50;;;;;;;18.63;3.63;;;;;;;-144.73;100.00;54485.69;4912610;28;20110;-72
2023/07/26 06:06:16;;;;;;;13.00;3.35;;;;;;;-144.73;100.00;54498.00;4925225;28;20034;-72
2023/07/26 06:08:42;;;;;;;12.07;3.15;;;;;;;-144.73;100.00;54498.00;4920947;28;20040;-72
2023/07/26 06:11:07;;;;;;;8.43;3.20;;;;;;;-144.73;100.00;54514.44;4977921;28;20357;-72
2023/07/26 06:13:33;;;;;;;18.70;3.60;;;;;;;-144.73;100.00;54477.47;4937349;28;20040;-72
2023/07/26 06:15:58;;;;;;;13.48;3.60;;;;;;;-144.73;100.00;54489.81;4971113;28;20035;-73
2023/07/26 06:18:24;;;;;;;15.82;3.67;;;;;;;-144.73;100.00;54471.31;4947214;28;20120;-73
2023/07/26 06:20:49;;;;;;;8.18;3.20;;;;;;;-144.73;100.00;54467.22;4917073;28;20028;-73
2023/07/26 06:23:14;;;;;;;8.10;3.17;;;;;;;-144.73;100.00;54477.47;4923818;28;20051;-73
2023/07/26 06:25:39;;;;;;;23.77;4.00;;;;;;;-144.73;100.00;54498.00;4928629;28;20039;-72
2023/07/26 06:28:05;;;;;;;16.55;3.58;;;;;;;-144.73;100.00;54469.28;4913337;28;20123;-73
2023/07/26 06:30:31;;;;;;;12.50;4.00;;;;;;;-144.73;100.00;54493.91;4995601;28;20101;-72
2023/07/26 06:32:56;;;;;;;12.68;2.92;;;;;;;-144.73;100.00;54489.81;4946585;28;20491;-71
2023/07/26 06:35:22;;;;;;;14.35;3.17;;;;;;;-144.73;100.00;54489.81;4965106;28;20118;-72
2023/07/26 06:37:47;;;;;;;13.88;3.03;;;;;;;-144.73;100.00;54487.75;4970644;28;21032;-75
2023/07/26 06:40:13;;;;;;;8.80;3.00;;;;;;;-144.73;100.00;54522.63;4974047;28;20503;-75
2023/07/26 06:42:39;;;;;;;9.55;3.10;;;;;;;-144.73;100.00;54506.22;4940671;28;20041;-75
2023/07/26 06:45:05;;;;;;;14.65;3.58;;;;;;;-144.73;100.00;54498.00;4955049;28;20032;-75
2023/07/26 06:47:30;;;;;;;8.82;2.90;;;;;;;-144.73;100.00;54493.91;4939692;28;20084;-75
2023/07/26 06:49:55;;;;;;;12.05;3.22;;;;;;;-144.73;100.00;54493.91;4926577;28;20052;-76
2023/07/26 06:52:21;;;;;;;12.55;3.05;;;;;;;-144.73;100.00;54522.63;4927094;28;20036;-76
2023/07/26 06:54:46;;;;;;;12.90;3.17;;;;;;;-144.73;100.00;54504.16;4986985;28;20036;-76
2023/07/26 06:57:11;;;;;;;10.90;3.20;;;;;;;-144.73;100.00;54489.81;4947932;28;20020;-76
2023/07/26 06:59:37;;;;;;;10.65;3.40;;;;;;;-144.73;100.00;54469.28;4912580;28;20043;-76
2023/07/26 07:02:05;;;;;;;24.00;3.22;;;;;;;-144.73;100.00;54481.59;4915311;28;20019;-76
2023/07/26 07:04:32;;;;;;;13.75;3.13;;;;;;;-144.73;100.00;54475.44;4912526;28;20047;-76
2023/07/26 07:06:58;;;;;;;14.23;2.42;;;;;;;-144.73;100.00;54481.59;4920217;28;20047;-76
2023/07/26 07:09:24;;;;;;;16.73;3.70;;;;;;;-144.73;100.00;54530.84;4992599;28;20030;-76
2023/07/26 07:11:49;;;;;;;10.57;2.50;;;;;;;-144.73;100.00;54508.28;4940146;28;20025;-76
2023/07/26 07:14:15;;;;;;;7.68;2.60;;;;;;;-144.73;100.00;54539.06;4971484;28;20061;-76
2023/07/26 07:16:40;;;;;;;14.43;3.80;;;;;;;-144.73;100.00;54481.59;4954102;28;20024;-76
2023/07/26 07:19:06;;;;;;;14.52;3.50;;;;;;;-144.73;100.00;54487.75;4925272;28;20579;-76
2023/07/26 07:21:31;;;;;;;15.52;2.90;;;;;;;-144.73;100.00;54502.13;4925421;28;20024;-76
2023/07/26 07:23:56;;;;;;;9.45;2.33;;;;;;;-144.73;100.00;54481.59;4950564;28;20535;-76
2023/07/26 07:26:22;;;;;;;9.93;2.65;;;;;;;-144.73;100.00;54448.75;4921203;28;20021;-76
2023/07/26 07:28:47;;;;;;;6.40;2.40;;;;;;;-144.73;100.00;54456.97;4956449;28;20036;-76
2023/07/26 07:31:12;;;;;;;12.38;3.05;;;;;;;-144.73;100.00;54452.84;5012103;28;20036;-76
2023/07/26 07:33:38;;;;;;;14.88;2.67;;;;;;;-144.73;100.00;54461.06;4927033;28;20048;-76
2023/07/26 07:36:04;;;;;;;6.20;2.58;;;;;;;-144.73;100.00;54489.81;5015207;28;20040;-76
2023/07/26 07:38:31;;;;;;;14.18;3.22;;;;;;;-144.73;100.00;54461.06;4916772;28;20043;-76
2023/07/26 07:40:56;;;;;;;7.28;2.25;;;;;;;-144.73;100.00;54475.44;5010752;28;20395;-76
2023/07/26 07:43:22;;;;;;;9.02;2.72;;;;;;;-144.73;100.00;54450.81;4916578;28;20032;-75
2023/07/26 07:45:47;;;;;;;11.85;2.63;;;;;;;-144.73;100.00;54436.44;4946816;28;20021;-76
2023/07/26 07:48:12;;;;;;;15.65;2.50;;;;;;;-144.73;100.00;54452.84;4912237;28;20131;-77
2023/07/26 07:50:37;;;;;;;16.92;2.85;;;;;;;-144.73;100.00;54473.38;4911377;28;20476;-76
2023/07/26 07:53:04;;;;;;;10.60;2.85;;;;;;;-144.73;100.00;54481.59;4940743;28;20478;-76
2023/07/26 07:55:31;;;;;;;8.60;2.92;;;;;;;-144.73;100.00;54407.69;4939450;28;20032;-76
2023/07/26 07:57:59;;;;;;;11.25;3.08;;;;;;;-144.73;100.00;54456.97;4915347;28;20036;-80
2023/07/26 08:00:24;;;;;;;18.70;3.40;;;;;;;-144.73;100.00;54456.97;4916762;28;20035;-76
2023/07/26 08:02:49;;;;;;;8.32;2.75;;;;;;;-144.73;100.00;54413.84;4919241;28;20032;-75
2023/07/26 08:05:15;;;;;;;9.38;3.22;;;;;;;-144.73;100.00;54440.53;4934049;28;20506;-75
2023/07/26 08:07:40;;;;;;;11.52;2.97;;;;;;;-144.73;100.00;54387.19;4944318;28;20036;-76
2023/07/26 08:10:06;;;;;;;9.30;2.72;;;;;;;-144.73;100.00;54440.53;4919646;28;20091;-77
2023/07/26 08:12:35;;;;;;;15.13;2.90;;;;;;;-144.73;100.00;54434.38;4953504;28;20067;-77
2023/07/26 08:15:00;;;;;;;5.97;2.17;;;;;;;-144.73;100.00;54493.91;4946328;28;20018;-77
2023/07/26 08:17:25;;;;;;;12.07;2.90;;;;;;;-144.73;98.07;54452.84;4976849;28;20039;-76
2023/07/26 08:19:51;;;;;;;10.50;2.67;;;;;;;-144.73;98.30;54456.97;4926616;28;20024;-76
2023/07/26 08:22:16;;;;;;;9.93;2.67;;;;;;;-144.73;96.81;54432.31;4931445;28;20020;-76
2023/07/26 08:24:41;;;;;;;10.35;2.30;;;;;;;-144.73;89.63;54442.59;4945595;28;20038;-76
2023/07/26 08:27:07;;;;;;;11.48;2.40;;;;;;;-144.73;91.22;54407.69;4927302;28;20022;-76
2023/07/26 08:29:32;;;;;;;8.50;2.25;;;;;;;-144.73;85.85;54448.75;4912589;28;20048;-76
2023/07/26 08:31:57;;;;;;;9.10;2.28;;;;;;;-144.73;86.03;54376.91;4913296;29;20019;-76
2023/07/26 08:34:23;;;;;;;14.63;2.15;;;;;;;-144.73;85.90;54498.00;4911772;28;20474;-76
2023/07/26 08:36:48;;;;;;;10.10;2.38;;;;;;;-144.73;83.41;54424.13;4912364;28;20089;-76
2023/07/26 08:39:14;;;;;;;4.95;1.85;;;;;;;-144.73;76.85;54415.91;4949750;28;20115;-76
2023/07/26 08:41:40;;;;;;;12.65;2.42;;;;;;;-144.73;77.60;54407.69;5010675;28;20032;-76
2023/07/26 08:44:08;;;;;;;8.57;2.17;;;;;;;-144.73;75.86;54485.69;4954846;28;20047;-75
2023/07/26 08:46:39;;;;;;;5.40;1.90;;;;;;;-144.73;74.79;54473.38;4958414;28;20051;-75
2023/07/26 08:49:07;;;;;;;5.03;1.67;;;;;;;-144.73;81.11;54438.50;4946022;28;20054;-75
2023/07/26 08:51:32;;;;;;;9.55;2.75;;;;;;;-144.73;81.94;54456.97;4960866;28;20044;-75
2023/07/26 08:53:58;;;;;;;9.32;2.30;;;;;;;-144.73;85.41;54428.22;4964668;28;20036;-75
2023/07/26 08:56:26;;;;;;;29.75;2.85;;;;;;;-144.73;86.95;54467.22;4970247;28;20024;-75
2023/07/26 08:58:52;;;;;;;5.00;1.88;;;;;;;-144.73;82.45;54446.69;4956452;28;20034;-76
2023/07/26 09:01:17;;;;;;;4.82;1.65;;;;;;;-144.73;82.72;54500.06;4952916;28;20028;-76
2023/07/26 09:03:43;;;;;;;6.88;1.65;;;;;;;-144.73;79.93;54477.47;4954672;28;20040;-76
2023/07/26 09:06:09;;;;;;;3.78;1.55;;;;;;;-144.73;80.94;54461.06;4966172;28;20362;-76
2023/07/26 09:08:34;;;;;;;5.53;1.73;;;;;;;-144.73;80.29;54436.44;4928888;28;20380;-76
2023/07/26 09:11:26;;;;;;;4.55;1.75;;;;;;;-144.73;77.16;54432.31;4928213;28;20027;-76
2023/07/26 09:13:53;;;;;;;2.63;1.45;;;;;;;-144.73;76.92;54428.22;4931353;28;20068;-76
2023/07/26 09:16:20;;;;;;;4.22;1.90;;;;;;;-144.73;73.54;54411.81;4942583;28;20074;-76
2023/07/26 09:19:04;;;;;;;4.63;1.70;;;;;;;-144.73;71.79;54415.91;4925536;28;20119;-77
2023/07/26 09:21:34;;;;;;;7.38;1.80;;;;;;;-144.73;72.00;54440.53;4916718;28;20028;-77
2023/07/26 09:24:03;;;;;;;7.43;1.80;;;;;;;-144.73;72.98;54413.84;4957817;28;20032;-76
2023/07/26 09:26:39;;;;;;;3.67;1.38;;;;;;;-144.73;67.01;54452.84;4968816;28;20122;-77
2023/07/26 09:29:13;;;;;;;2.95;1.83;;;;;;;-144.73;68.81;54465.16;5011245;28;20119;-77
2023/07/26 09:31:42;;;;;;;1.58;1.13;;;;;;;-144.73;66.63;54370.75;4949518;28;20040;-74
2023/07/26 09:34:11;;;;;;;2.22;1.30;;;;;;;-144.73;65.38;54395.38;4974411;28;20044;-77
2023/07/26 09:36:50;;;;;;;9.32;1.55;;;;;;;-144.73;61.87;54413.84;4951807;28;20024;-77
2023/07/26 09:39:17;;;;;;;1.95;1.33;;;;;;;-144.73;62.53;54415.91;4908244;28;20048;-75
2023/07/26 09:41:45;;;;;;;2.30;1.20;;;;;;;-144.73;63.52;54444.66;4929371;28;20052;-76
2023/07/26 09:44:19;;;;;;;2.80;1.25;;;;;;;-144.73;61.01;54428.22;4954973;28;20036;-75
2023/07/26 09:46:49;;;;;;;4.70;1.50;;;;;;;-144.73;61.09;54399.50;4967302;28;20120;-76
2023/07/26 09:49:16;;;;;;;7.70;1.48;;;;;;;-144.73;62.19;54407.69;4912302;28;20043;-75
2023/07/26 09:51:42;;;;;;;2.58;1.60;;;;;;;-144.73;62.40;54422.06;4922385;28;20207;-76
2023/07/26 09:54:10;;;;;;;7.20;1.42;;;;;;;-144.73;62.92;54436.44;4914885;28;20559;-76
2023/07/26 09:56:35;;;;;;;6.43;1.63;;;;;;;-144.73;60.77;54430.28;4914621;28;20036;-76
2023/07/26 09:59:04;;;;;;;4.65;1.48;;;;;;;-144.73;55.25;54395.38;4913989;28;20025;-77
2023/07/26 10:01:32;;;;;;;1.48;1.10;;;;;;;-144.73;57.63;54399.50;4911333;29;20028;-76
2023/07/26 10:04:00;;;;;;;18.92;1.40;;;;;;;-144.73;57.24;54370.75;4910039;28;20064;-76
2023/07/26 10:06:32;;;;;;;6.00;1.38;;;;;;;-144.73;57.42;54389.22;4911218;29;20043;-76
2023/07/26 10:08:59;;;;;;;1.45;1.08;;;;;;;-144.73;57.99;54383.06;4951561;28;20102;-76
2023/07/26 10:11:27;;;;;;;4.03;1.20;;;;;;;-144.73;58.92;54448.75;4916257;28;20460;-75
2023/07/26 10:13:53;;;;;;;3.15;1.33;;;;;;;-144.73;59.69;54440.53;4923138;28;20102;-76
2023/07/26 10:16:19;;;;;;;3.10;1.48;;;;;;;-144.73;55.82;54436.44;4929666;28;20051;-76
2023/07/26 10:18:47;;;;;;;4.50;1.42;;;;;;;-144.73;54.68;54430.28;4921975;28;20039;-76
2023/07/26 10:21:15;;;;;;;3.45;1.65;;;;;;;-144.73;53.65;54411.81;4950825;28;20030;-76
2023/07/26 10:23:44;;;;;;;2.75;1.10;;;;;;;-144.73;54.75;54399.50;4925576;28;20036;-76
2023/07/26 10:26:11;;;;;;;1.67;1.00;;;;;;;-144.73;54.73;54393.34;4913783;28;20040;-76
2023/07/26 10:28:38;;;;;;;3.00;1.13;;;;;;;-144.73;55.53;54487.75;4954928;28;20040;-75
2023/07/26 10:31:03;;;;;;;1.98;1.33;;;;;;;-144.73;58.87;54444.66;4929819;28;20425;-75
2023/07/26 10:33:29;;;;;;;3.47;1.40;;;;;;;-144.73;58.06;54407.69;4984309;28;20049;-76
2023/07/26 10:35:54;;;;;;;4.50;1.30;;;;;;;-144.73;56.84;54469.28;4963963;28;20029;-75
2023/07/26 10:38:20;;;;;;;9.88;2.17;;;;;;;-144.73;57.35;54452.84;4976170;28;20489;-75
2023/07/26 10:40:46;;;;;;;3.28;1.45;;;;;;;-144.73;59.23;54448.75;4932202;28;20075;-75
2023/07/26 10:43:21;;;;;;;1.67;1.20;;;;;;;-144.73;58.91;54444.66;4973970;28;20062;-75
2023/07/26 10:45:54;;;;;;;2.78;1.23;;;;;;;-144.73;58.00;54383.06;4994945;28;20037;-76
2023/07/26 10:48:22;;;;;;;2.05;1.10;;;;;;;-144.73;58.43;54432.31;4933791;28;20040;-76
2023/07/26 10:50:47;;;;;;;2.38;1.45;;;;;;;-144.73;57.70;54372.81;4924667;28;20028;-76
2023/07/26 10:53:38;;;;;;;4.80;1.55;;;;;;;-144.73;56.69;54420.00;4933307;28;20117;-76
2023/07/26 10:56:12;;;;;;;2.25;1.55;;;;;;;-144.73;57.49;54407.69;4991088;28;20085;-76
2023/07/26 10:58:50;;;;;;;2.42;1.30;;;;;;;-144.73;56.08;54391.28;4913470;28;20032;-76
2023/07/26 11:01:48;;;;;;;1.85;1.45;;;;;;;-144.73;56.83;54434.38;4940666;28;20032;-76
2023/07/26 11:04:19;;;;;;;1.92;0.98;;;;;;;-144.73;57.42;54354.34;4939804;28;20047;-77